Time;durP1;ratioP1;P1;durP2;ratioP2;P2;SDS_P1;SDS_P2;PMS_P1;PMS_P2;Temp;Humidity;BMP_temperature;BMP_pressure;BME280_temperature;BME280_humidity;BME280_pressure;Samples;Min_cycle;Max_cycle;Signal;HPM_P1;HPM_P2
2022/01/17 00:03:41;;;;;;;10.17;9.17;;;6.20;44.40;;;;;;10381727;28;20232;-71
2022/01/17 00:08:46;;;;;;;10.30;9.30;;;6.20;44.40;;;;;;10379815;28;20861;-71
2022/01/17 00:13:50;;;;;;;10.83;9.67;;;6.20;44.40;;;;;;10382084;28;20228;-70
2022/01/17 00:19:30;;;;;;;10.27;9.23;;;6.20;44.40;;;;;;10371447;28;20226;-70
2022/01/17 00:24:32;;;;;;;11.03;9.93;;;6.20;44.40;;;;;;10377602;28;20226;-71
2022/01/17 00:29:35;;;;;;;10.43;9.37;;;6.30;44.30;;;;;;10381498;28;20234;-71
2022/01/17 00:34:40;;;;;;;11.37;10.17;;;6.30;44.20;;;;;;10378690;28;20234;-70
2022/01/17 00:39:43;;;;;;;9.57;8.60;;;6.30;44.30;;;;;;10380547;28;20231;-71
2022/01/17 00:44:47;;;;;;;10.67;9.57;;;6.30;44.40;;;;;;10381756;28;20217;-71
2022/01/17 00:49:52;;;;;;;10.63;9.53;;;6.20;44.30;;;;;;10382386;28;20221;-71
2022/01/17 00:54:55;;;;;;;12.03;10.80;;;6.20;44.30;;;;;;10379386;28;20556;-70
2022/01/17 00:59:58;;;;;;;11.30;10.10;;;6.30;44.30;;;;;;10381378;28;20229;-73
2022/01/17 01:05:05;;;;;;;11.70;10.57;;;6.20;44.20;;;;;;10381678;28;20300;-73
2022/01/17 01:10:10;;;;;;;12.17;10.97;;;6.20;44.30;;;;;;10376866;28;20222;-73
2022/01/17 01:15:19;;;;;;;11.87;10.67;;;6.10;44.40;;;;;;10379109;28;20698;-73
2022/01/17 01:20:50;;;;;;;12.67;11.37;;;6.00;44.40;;;;;;10381665;28;20755;-73
2022/01/17 01:31:17;;;;;;;12.40;11.10;;;6.10;44.70;;;;;;10381881;28;20221;-73
2022/01/17 01:36:26;;;;;;;12.10;10.83;;;6.10;44.60;;;;;;10382249;28;20229;-73
2022/01/17 01:41:30;;;;;;;13.27;11.90;;;6.10;44.50;;;;;;10383310;28;20431;-73
2022/01/17 01:46:33;;;;;;;11.87;10.67;;;6.20;44.50;;;;;;10379742;28;20603;-73
2022/01/17 01:51:38;;;;;;;11.57;10.37;;;6.20;44.50;;;;;;10380171;28;20238;-73
2022/01/17 01:56:43;;;;;;;12.20;10.90;;;6.20;44.40;;;;;;10381666;28;20260;-73
2022/01/17 02:01:47;;;;;;;11.40;10.20;;;6.30;44.10;;;;;;10381794;28;20229;-73
2022/01/17 02:06:52;;;;;;;11.63;10.43;;;6.30;44.10;;;;;;10380895;28;20218;-73
2022/01/17 02:11:55;;;;;;;11.83;10.57;;;6.30;44.20;;;;;;10382025;28;20221;-73
2022/01/17 02:17:03;;;;;;;12.07;10.83;;;6.30;44.30;;;;;;10377536;28;20276;-73
2022/01/17 02:22:08;;;;;;;10.93;9.77;;;6.30;44.10;;;;;;10377940;28;20614;-73
2022/01/17 02:27:11;;;;;;;12.80;10.83;;;6.40;44.10;;;;;;10378520;28;20596;-73
2022/01/17 02:32:14;;;;;;;11.00;9.90;;;6.40;44.10;;;;;;10376264;28;20240;-73
2022/01/17 02:37:20;;;;;;;10.80;9.70;;;6.40;44.10;;;;;;10374010;28;20226;-73
2022/01/17 02:42:26;;;;;;;11.10;9.33;;;6.50;44.00;;;;;;10376282;28;20233;-73
2022/01/17 02:47:30;;;;;;;10.43;9.33;;;6.40;44.00;;;;;;10376028;28;20237;-73
2022/01/17 02:52:35;;;;;;;11.67;9.63;;;6.40;44.10;;;;;;10375741;28;20249;-73
2022/01/17 02:57:38;;;;;;;10.73;9.33;;;6.40;44.10;;;;;;10381907;28;20595;-73
2022/01/17 03:02:46;;;;;;;10.67;9.57;;;6.40;44.10;;;;;;10375841;28;20272;-73
2022/01/17 03:07:51;;;;;;;10.43;9.43;;;6.30;44.10;;;;;;10380720;28;20234;-73
2022/01/17 03:13:02;;;;;;;10.70;9.60;;;6.30;44.10;;;;;;10386943;28;20232;-73
2022/01/17 03:18:05;;;;;;;11.03;9.33;;;6.30;43.80;;;;;;10381937;28;20222;-73
2022/01/17 03:23:10;;;;;;;11.40;10.20;;;6.40;44.30;;;;;;10382495;28;20238;-73
2022/01/17 03:28:13;;;;;;;10.93;9.33;;;6.30;44.00;;;;;;10383985;28;20222;-73
2022/01/17 03:33:17;;;;;;;10.47;9.40;;;6.40;44.10;;;;;;10387907;28;20234;-73
2022/01/17 03:38:24;;;;;;;11.77;10.13;;;6.40;44.00;;;;;;10380598;28;20233;-73
2022/01/17 03:49:30;;;;;;;9.90;8.90;;;6.30;44.10;;;;;;10483648;28;20644;-78
2022/01/17 03:54:35;;;;;;;11.63;10.03;;;6.40;44.00;;;;;;10489153;28;20244;-78
2022/01/17 03:59:38;;;;;;;10.77;9.67;;;6.40;43.90;;;;;;10474736;28;20224;-78
2022/01/17 04:04:42;;;;;;;11.53;10.43;;;6.40;44.00;;;;;;10482297;28;20311;-78
2022/01/17 04:09:46;;;;;;;11.23;10.03;;;6.50;44.10;;;;;;10486882;28;20224;-78
2022/01/17 04:14:53;;;;;;;11.13;10.03;;;6.40;43.90;;;;;;10492757;28;20630;-78
2022/01/17 04:20:05;;;;;;;10.60;9.43;;;6.40;44.00;;;;;;10487587;28;20239;-78
2022/01/17 04:25:11;;;;;;;11.63;10.43;;;6.40;43.90;;;;;;10487115;28;20324;-78
2022/01/17 04:30:15;;;;;;;11.43;10.20;;;6.40;43.90;;;;;;10485299;28;20228;-79
2022/01/17 04:35:21;;;;;;;12.23;10.93;;;6.40;43.90;;;;;;10483922;28;20306;-78
2022/01/17 04:40:33;;;;;;;11.73;10.53;;;6.50;43.90;;;;;;10484949;28;20231;-78
2022/01/17 04:45:36;;;;;;;10.93;9.83;;;6.50;44.00;;;;;;10480185;28;20621;-78
2022/01/17 04:50:40;;;;;;;13.47;11.17;;;6.40;44.00;;;;;;10480163;28;20224;-79
2022/01/17 04:55:45;;;;;;;12.13;10.37;;;6.50;43.90;;;;;;10488300;28;20224;-78
2022/01/17 05:00:49;;;;;;;11.27;10.17;;;6.40;43.90;;;;;;10482504;28;20228;-78
2022/01/17 05:05:52;;;;;;;11.97;10.50;;;6.50;43.90;;;;;;10483647;28;20299;-78
2022/01/17 05:10:57;;;;;;;11.37;10.20;;;6.50;43.90;;;;;;10486589;28;20308;-78
2022/01/17 05:16:10;;;;;;;11.23;10.10;;;6.50;43.90;;;;;;10480712;28;20217;-78
2022/01/17 05:21:15;;;;;;;12.57;10.70;;;6.50;43.90;;;;;;10474583;28;20224;-78
2022/01/17 05:26:19;;;;;;;10.83;9.63;;;6.50;44.00;;;;;;10481093;28;20319;-78
2022/01/17 05:31:23;;;;;;;11.97;10.70;;;6.60;43.90;;;;;;10480287;28;20234;-78
2022/01/17 05:36:26;;;;;;;12.13;10.63;;;6.60;44.00;;;;;;10473980;22;20638;-73
2022/01/17 05:41:31;;;;;;;11.97;10.70;;;6.60;44.00;;;;;;10455034;28;20225;-73
2022/01/17 05:46:34;;;;;;;12.20;10.90;;;6.60;44.00;;;;;;10453675;28;20229;-73
2022/01/17 05:51:37;;;;;;;12.33;11.13;;;6.60;44.00;;;;;;10450830;28;20229;-72
2022/01/17 05:56:42;;;;;;;14.17;11.93;;;6.60;44.00;;;;;;10448838;28;20232;-72
2022/01/17 06:01:45;;;;;;;12.93;11.27;;;6.60;44.00;;;;;;10448751;28;20225;-72
2022/01/17 06:06:48;;;;;;;12.10;10.90;;;6.60;44.00;;;;;;10448503;28;20233;-73
2022/01/17 06:11:53;;;;;;;12.43;10.90;;;6.50;43.90;;;;;;10451235;28;20233;-73
2022/01/17 06:16:56;;;;;;;12.43;11.13;;;6.50;43.90;;;;;;10445305;28;20248;-74
2022/01/17 06:21:59;;;;;;;10.23;9.17;;;6.50;43.90;;;;;;10445458;28;20270;-75
2022/01/17 06:27:04;;;;;;;10.90;9.80;;;6.60;44.00;;;;;;10447467;28;20740;-75
2022/01/17 06:32:08;;;;;;;12.80;11.40;;;6.60;44.00;;;;;;10441194;28;20247;-74
2022/01/17 06:37:28;;;;;;;12.10;10.80;;;6.50;43.90;;;;;;10406435;28;20232;-75
2022/01/17 06:42:32;;;;;;;12.70;10.80;;;6.50;43.90;;;;;;10406813;28;20232;-75
2022/01/17 06:47:37;;;;;;;10.97;9.77;;;6.50;43.90;;;;;;10453944;28;20236;-75
2022/01/17 06:52:40;;;;;;;10.63;9.53;;;6.50;43.90;;;;;;10455706;28;20611;-75
2022/01/17 06:57:45;;;;;;;12.83;9.97;;;6.50;43.90;;;;;;10443606;28;20722;-74
2022/01/17 07:02:49;;;;;;;10.53;9.43;;;6.60;44.00;;;;;;10414272;28;20237;-75
2022/01/17 07:07:52;;;;;;;10.53;9.43;;;6.60;44.00;;;;;;10431176;28;20709;-74
2022/01/17 07:12:57;;;;;;;11.30;10.10;;;6.60;44.10;;;;;;10425066;28;20232;-74
2022/01/17 07:18:00;;;;;;;9.83;8.87;;;6.70;44.10;;;;;;10424398;28;20629;-74
2022/01/17 07:23:04;;;;;;;9.73;8.83;;;6.70;43.90;;;;;;10415390;28;20225;-74
2022/01/17 07:28:10;;;;;;;10.60;9.50;;;6.70;44.10;;;;;;10437584;28;20232;-75
2022/01/17 07:33:13;;;;;;;10.37;9.27;;;6.70;43.90;;;;;;10430453;28;20229;-75
2022/01/17 07:38:16;;;;;;;9.37;8.47;;;6.70;44.10;;;;;;10426710;28;20229;-75
2022/01/17 07:43:21;;;;;;;9.47;8.47;;;6.70;44.10;;;;;;10444567;28;20732;-75
2022/01/17 07:48:55;;;;;;;10.50;9.27;;;6.70;44.10;;;;;;10443954;28;20225;-75
2022/01/17 07:53:58;;;;;;;9.00;8.10;;;6.80;44.20;;;;;;10433953;28;20221;-75
2022/01/17 07:59:04;;;;;;;11.03;9.87;;;6.70;44.10;;;;;;10457002;28;20227;-76
2022/01/17 08:04:07;;;;;;;9.07;8.17;;;6.80;44.20;;;;;;10446985;28;20233;-75
2022/01/17 08:09:13;;;;;;;10.70;8.80;;;6.80;44.20;;;;;;10441561;28;20217;-75
2022/01/17 08:14:39;;;;;;;9.70;8.70;;;6.80;44.20;;;;;;10440055;28;20270;-75
2022/01/17 08:19:43;;;;;;;9.67;8.73;;;6.80;44.30;;;;;;10432635;28;20221;-75
2022/01/17 08:24:46;;;;;;;9.37;8.40;;;6.80;44.50;;;;;;10442327;28;20272;-76
2022/01/17 08:29:51;;;;;;;10.20;9.20;;;6.80;44.50;;;;;;10434443;28;20243;-76
2022/01/17 08:35:14;;;;;;;9.63;8.67;;;6.80;44.50;;;;;;10436756;28;20229;-76
2022/01/17 08:40:18;;;;;;;10.90;8.93;;;6.80;44.60;;;;;;10446355;28;20304;-75
2022/01/17 08:45:24;;;;;;;9.07;8.17;;;6.70;44.50;;;;;;10443936;28;22416;-75
2022/01/17 08:50:48;;;;;;;9.47;8.57;;;6.70;44.70;;;;;;10435360;28;20229;-75
2022/01/17 08:55:51;;;;;;;8.97;8.07;;;6.70;44.60;;;;;;10435307;28;20222;-75
2022/01/17 09:00:57;;;;;;;9.13;8.23;;;6.70;44.60;;;;;;10430751;28;20597;-75
2022/01/17 09:06:01;;;;;;;8.83;7.93;;;6.80;44.60;;;;;;10438506;28;20225;-75
2022/01/17 09:11:04;;;;;;;9.13;8.20;;;6.80;44.60;;;;;;10437386;28;20216;-75
2022/01/17 09:16:09;;;;;;;15.93;13.13;;;6.80;44.60;;;;;;10436854;28;20739;-75
2022/01/17 09:21:12;;;;;;;11.40;9.57;;;6.80;44.70;;;;;;10434338;28;20775;-75
2022/01/17 09:26:15;;;;;;;9.50;8.50;;;6.90;44.60;;;;;;10418918;28;20673;-75
2022/01/17 09:31:20;;;;;;;9.13;8.23;;;6.90;44.70;;;;;;10434979;28;20243;-74
2022/01/17 09:36:25;;;;;;;9.80;8.80;;;6.90;44.70;;;;;;10433895;28;20232;-74
2022/01/17 09:41:28;;;;;;;11.03;9.90;;;6.90;44.80;;;;;;10435396;28;20225;-75
2022/01/17 09:46:38;;;;;;;9.73;8.77;;;6.90;44.80;;;;;;10442980;28;20239;-75
2022/01/17 09:52:04;;;;;;;8.77;7.87;;;7.00;44.90;;;;;;10434172;28;20226;-76
2022/01/17 09:57:08;;;;;;;9.30;8.40;;;7.00;44.90;;;;;;10446167;28;20232;-75
2022/01/17 10:02:14;;;;;;;10.13;8.67;;;7.00;44.80;;;;;;10433157;28;20613;-75
2022/01/17 10:07:17;;;;;;;7.97;7.17;;;7.00;44.90;;;;;;10417127;28;20279;-74
2022/01/17 10:12:21;;;;;;;8.70;7.87;;;7.00;44.90;;;;;;10416286;28;20237;-74
2022/01/17 10:17:43;;;;;;;7.33;6.63;;;7.00;44.90;;;;;;10417187;28;20233;-72
2022/01/17 10:22:53;;;;;;;7.40;6.70;;;7.10;44.90;;;;;;10419576;28;20298;-74
2022/01/17 10:28:40;;;;;;;7.23;6.53;;;7.10;44.90;;;;;;10399281;28;20228;-74
2022/01/17 10:39:07;;;;;;;7.63;6.57;;;7.20;44.80;;;;;;10410907;28;20231;-75
2022/01/17 10:44:10;;;;;;;7.67;6.80;;;7.30;44.80;;;;;;10412016;28;20304;-75
2022/01/17 10:49:14;;;;;;;7.00;6.30;;;7.30;44.80;;;;;;10434265;28;20227;-74
2022/01/17 10:54:18;;;;;;;7.03;6.33;;;7.30;44.70;;;;;;10416486;28;20898;-73
2022/01/17 10:59:27;;;;;;;6.47;5.87;;;7.40;44.70;;;;;;10431637;28;20245;-74
2022/01/17 11:04:39;;;;;;;6.20;5.60;;;7.50;44.80;;;;;;10429216;28;20232;-75
2022/01/17 11:09:45;;;;;;;5.90;5.30;;;7.50;44.60;;;;;;10404597;28;20912;-74
2022/01/17 11:14:48;;;;;;;6.13;5.53;;;7.50;44.80;;;;;;10400211;28;20233;-75
2022/01/17 11:20:04;;;;;;;5.93;5.30;;;7.60;44.70;;;;;;10430798;28;20232;-75
2022/01/17 11:25:10;;;;;;;5.57;5.10;;;7.60;44.60;;;;;;10413324;28;20221;-75
2022/01/17 11:30:15;;;;;;;5.73;5.13;;;7.60;44.60;;;;;;10415355;28;20755;-75
2022/01/17 11:35:21;;;;;;;5.90;5.30;;;7.60;44.60;;;;;;10421106;28;20235;-75
2022/01/17 11:40:29;;;;;;;5.43;4.93;;;7.60;44.50;;;;;;10462348;22;20220;-69
2022/01/17 11:45:38;;;;;;;5.53;5.03;;;7.60;44.60;;;;;;10451207;28;20229;-68
2022/01/17 11:50:45;;;;;;;5.60;5.10;;;7.60;44.60;;;;;;10411495;28;20225;-68
2022/01/17 11:55:50;;;;;;;6.33;5.53;;;7.60;44.70;;;;;;10414119;28;20851;-71
2022/01/17 12:01:15;;;;;;;5.70;5.20;;;7.60;44.60;;;;;;10420225;28;20218;-68
2022/01/17 12:06:33;;;;;;;6.00;5.40;;;7.60;44.80;;;;;;10421554;28;20228;-68
2022/01/17 12:11:37;;;;;;;6.33;5.73;;;7.60;44.80;;;;;;10420961;28;20711;-68
2022/01/17 12:16:41;;;;;;;6.30;5.80;;;7.60;44.60;;;;;;10422677;28;20229;-68
2022/01/17 12:21:53;;;;;;;5.87;5.33;;;7.60;44.70;;;;;;10422399;28;20221;-68
2022/01/17 12:27:27;;;;;;;6.80;6.20;;;7.50;44.60;;;;;;10419329;28;20236;-68
2022/01/17 12:32:50;;;;;;;7.23;6.53;;;7.50;44.60;;;;;;10422746;28;20217;-68
2022/01/17 12:38:04;;;;;;;7.23;6.43;;;7.50;44.10;;;;;;10429025;28;20229;-68
2022/01/17 12:43:31;;;;;;;7.20;6.50;;;7.50;43.60;;;;;;10423060;28;20225;-68
2022/01/17 12:48:37;;;;;;;7.93;7.13;;;7.40;44.10;;;;;;10423001;28;20229;-69
2022/01/17 12:53:50;;;;;;;6.50;5.90;;;7.30;44.00;;;;;;10427735;28;20237;-69
2022/01/17 12:58:53;;;;;;;6.73;6.13;;;7.30;43.70;;;;;;10427977;28;20241;-70
2022/01/17 13:04:04;;;;;;;6.70;6.10;;;7.40;44.00;;;;;;10429543;28;20214;-69
2022/01/17 13:09:13;;;;;;;6.67;6.07;;;7.40;43.60;;;;;;10426565;28;20236;-70
2022/01/17 13:14:18;;;;;;;6.80;5.97;;;7.40;43.70;;;;;;10434921;28;20488;-70
2022/01/17 13:19:22;;;;;;;5.53;5.00;;;7.50;44.00;;;;;;10426789;28;20232;-70
2022/01/17 13:24:35;;;;;;;6.03;5.43;;;7.50;43.90;;;;;;10427742;28;20233;-70
2022/01/17 13:29:39;;;;;;;6.53;5.53;;;7.60;43.50;;;;;;10427018;28;20232;-70
2022/01/17 13:34:43;;;;;;;5.70;5.10;;;7.60;43.40;;;;;;10420396;28;20253;-70
2022/01/17 13:39:48;;;;;;;5.57;4.90;;;7.60;43.50;;;;;;10415082;28;20232;-70
2022/01/17 13:44:51;;;;;;;5.43;5.00;;;7.70;43.20;;;;;;10424110;28;20323;-70
2022/01/17 13:49:55;;;;;;;5.77;5.17;;;7.70;43.20;;;;;;10421152;28;20236;-70
2022/01/17 13:54:59;;;;;;;5.07;4.57;;;7.70;43.10;;;;;;10418313;28;20708;-70
2022/01/17 14:00:22;;;;;;;5.87;5.27;;;7.70;43.00;;;;;;10420955;28;20224;-70
2022/01/17 14:05:31;;;;;;;5.80;5.20;;;7.80;42.80;;;;;;10421793;28;20236;-66
2022/01/17 14:10:36;;;;;;;4.40;4.00;;;7.80;43.40;;;;;;10425106;28;20731;-66
2022/01/17 14:15:40;;;;;;;5.83;4.30;;;7.80;42.90;;;;;;10431006;28;20233;-66
2022/01/17 14:20:53;;;;;;;5.77;4.03;;;7.80;43.10;;;;;;10425103;28;20219;-66
2022/01/17 14:25:59;;;;;;;5.27;4.77;;;7.80;42.40;;;;;;10424063;28;20237;-66
2022/01/17 14:31:14;;;;;;;5.17;4.67;;;7.80;42.70;;;;;;10427310;28;20628;-66
2022/01/17 14:36:18;;;;;;;5.47;4.80;;;7.80;42.30;;;;;;10425963;28;20795;-66
2022/01/17 14:41:32;;;;;;;4.47;4.07;;;7.80;42.90;;;;;;10419416;28;20230;-69
2022/01/17 14:46:42;;;;;;;4.83;4.37;;;7.80;42.60;;;;;;10414784;28;20567;-68
2022/01/17 14:51:48;;;;;;;4.47;4.07;;;7.80;42.70;;;;;;10424414;28;20220;-68
2022/01/17 15:02:22;;;;;;;4.87;4.30;;;7.80;42.30;;;;;;10425467;28;20224;-70
2022/01/17 15:07:25;;;;;;;4.67;4.23;;;7.80;42.50;;;;;;10428220;28;20281;-68
2022/01/17 15:12:30;;;;;;;4.53;3.70;;;7.80;42.60;;;;;;10430860;28;20233;-68
2022/01/17 15:17:36;;;;;;;5.00;4.23;;;7.80;42.30;;;;;;10427718;28;20232;-68
2022/01/17 15:22:40;;;;;;;4.60;4.20;;;7.70;42.20;;;;;;10423849;28;20221;-70
2022/01/17 15:27:45;;;;;;;6.00;4.30;;;7.70;42.00;;;;;;10421311;28;20221;-70
2022/01/17 15:32:50;;;;;;;4.60;4.20;;;7.70;42.10;;;;;;10418881;28;20237;-70
2022/01/17 15:37:53;;;;;;;4.50;4.10;;;7.70;42.30;;;;;;10420505;28;20221;-70
2022/01/17 15:42:57;;;;;;;5.37;4.87;;;7.70;42.40;;;;;;10424111;28;20224;-71
2022/01/17 15:48:03;;;;;;;4.43;4.03;;;7.60;42.10;;;;;;10412286;28;20230;-67
2022/01/17 15:53:07;;;;;;;4.40;4.00;;;7.70;42.50;;;;;;10419943;28;20221;-67
2022/01/17 15:58:12;;;;;;;5.53;5.00;;;7.70;42.50;;;;;;10416761;28;20231;-67
2022/01/17 16:03:15;;;;;;;4.67;4.27;;;7.70;42.30;;;;;;10416841;28;20222;-67
2022/01/17 16:08:18;;;;;;;4.23;3.93;;;7.70;42.50;;;;;;10419537;28;20238;-67
2022/01/17 16:13:24;;;;;;;4.60;3.80;;;7.70;42.50;;;;;;10426901;28;20243;-68
2022/01/17 16:18:28;;;;;;;4.67;4.07;;;7.70;42.40;;;;;;10430901;28;20229;-68
2022/01/17 16:23:31;;;;;;;4.43;4.03;;;7.70;42.20;;;;;;10419214;28;20229;-68
2022/01/17 16:28:36;;;;;;;4.27;3.53;;;7.70;42.30;;;;;;10420226;28;20221;-68
2022/01/17 16:33:39;;;;;;;4.13;3.73;;;7.70;42.00;;;;;;10419242;28;20232;-68
2022/01/17 16:38:49;;;;;;;3.90;3.53;;;7.70;42.20;;;;;;10418580;28;20225;-68
2022/01/17 16:43:55;;;;;;;4.27;3.40;;;7.70;42.20;;;;;;10413768;28;20872;-68
2022/01/17 16:48:58;;;;;;;4.20;3.80;;;7.70;42.20;;;;;;10423726;28;20228;-68
2022/01/17 16:54:01;;;;;;;4.60;3.90;;;7.70;42.30;;;;;;10420784;28;20221;-68
2022/01/17 16:59:06;;;;;;;4.30;3.90;;;7.70;42.50;;;;;;10431670;28;20229;-68
2022/01/17 17:04:09;;;;;;;4.37;3.97;;;7.70;42.40;;;;;;10416887;28;20778;-67
2022/01/17 17:09:12;;;;;;;4.43;4.00;;;7.70;42.50;;;;;;10411572;28;20612;-67
2022/01/17 17:14:17;;;;;;;4.80;4.40;;;7.70;42.50;;;;;;10408989;28;20235;-67
2022/01/17 17:19:21;;;;;;;4.40;4.00;;;7.70;42.70;;;;;;10409950;28;20220;-67
2022/01/17 17:24:24;;;;;;;5.00;4.27;;;7.70;42.80;;;;;;10412233;28;20232;-67
2022/01/17 17:29:29;;;;;;;4.47;4.07;;;7.60;42.70;;;;;;10411719;28;20436;-67
2022/01/17 17:34:32;;;;;;;4.40;4.00;;;7.60;42.70;;;;;;10410050;28;20247;-67
2022/01/17 17:39:36;;;;;;;5.07;4.30;;;7.60;42.90;;;;;;10413491;28;20225;-67
2022/01/17 17:44:41;;;;;;;5.10;3.90;;;7.60;42.90;;;;;;10405677;28;20235;-67
2022/01/17 17:49:44;;;;;;;4.40;3.80;;;7.60;42.90;;;;;;10421228;28;20600;-67
2022/01/17 17:54:47;;;;;;;4.80;4.40;;;7.60;43.00;;;;;;10418543;28;20230;-71
2022/01/17 17:59:52;;;;;;;4.60;4.20;;;7.60;42.70;;;;;;10416070;28;20223;-70
2022/01/17 18:04:55;;;;;;;4.17;3.37;;;7.60;42.80;;;;;;10428099;28;20226;-70
2022/01/17 18:09:58;;;;;;;4.07;3.77;;;7.70;42.90;;;;;;10422617;28;20221;-68
2022/01/17 18:15:04;;;;;;;4.77;4.27;;;7.70;42.70;;;;;;10415783;28;20224;-68
2022/01/17 18:20:09;;;;;;;4.33;3.93;;;7.70;42.70;;;;;;10417250;28;20225;-68
2022/01/17 18:25:13;;;;;;;4.10;3.70;;;7.70;42.80;;;;;;10421953;28;20224;-70
2022/01/17 18:30:18;;;;;;;5.43;4.67;;;7.70;42.90;;;;;;10419191;28;20233;-70
2022/01/17 18:35:21;;;;;;;5.50;3.90;;;7.60;42.70;;;;;;10417746;28;20430;-70
2022/01/17 18:40:24;;;;;;;4.60;4.17;;;7.60;42.90;;;;;;10418803;28;20610;-70
2022/01/17 18:45:29;;;;;;;4.67;4.27;;;7.60;42.70;;;;;;10423244;28;20403;-71
2022/01/17 18:50:33;;;;;;;4.60;4.20;;;7.60;42.70;;;;;;10427529;28;20228;-70
2022/01/17 18:55:37;;;;;;;5.00;4.50;;;7.60;42.90;;;;;;10422902;28;20580;-68
2022/01/17 19:00:42;;;;;;;4.30;4.00;;;7.60;42.90;;;;;;10429715;28;20236;-68
2022/01/17 19:05:45;;;;;;;4.60;4.20;;;7.60;42.90;;;;;;10424630;28;20225;-68
2022/01/17 19:10:48;;;;;;;4.63;4.23;;;7.60;42.90;;;;;;10416400;28;20221;-70
2022/01/17 19:15:53;;;;;;;4.40;4.00;;;7.60;42.80;;;;;;10423802;28;20240;-70
2022/01/17 19:21:15;;;;;;;4.57;4.17;;;7.70;42.80;;;;;;10423855;28;20224;-70
2022/01/17 19:26:18;;;;;;;4.37;3.97;;;7.70;42.80;;;;;;10423461;28;20602;-70
2022/01/17 19:31:22;;;;;;;4.77;4.30;;;7.70;42.80;;;;;;10423483;28;20610;-70
2022/01/17 19:36:26;;;;;;;4.53;4.13;;;7.70;42.80;;;;;;10420836;28;20233;-70
2022/01/17 19:41:29;;;;;;;5.40;4.90;;;7.70;42.90;;;;;;10424617;28;20226;-69
2022/01/17 19:46:34;;;;;;;4.83;4.43;;;7.60;42.80;;;;;;10425360;28;20764;-69
2022/01/17 19:51:37;;;;;;;5.73;5.20;;;7.60;42.80;;;;;;10422185;28;20232;-70
2022/01/17 19:56:40;;;;;;;4.93;4.43;;;7.60;42.90;;;;;;10426657;28;20225;-70
2022/01/17 20:01:45;;;;;;;4.97;4.57;;;7.70;43.00;;;;;;10420211;28;20597;-69
2022/01/17 20:06:48;;;;;;;4.47;4.07;;;7.70;42.70;;;;;;10408848;28;20303;-69
2022/01/17 20:11:51;;;;;;;5.40;4.90;;;7.70;42.70;;;;;;10414844;28;20217;-68
2022/01/17 20:16:56;;;;;;;5.17;4.70;;;7.60;42.60;;;;;;10448761;22;20217;-76
2022/01/17 20:22:03;;;;;;;5.43;4.93;;;7.70;42.70;;;;;;10422585;28;20602;-76
2022/01/17 20:27:06;;;;;;;5.50;5.03;;;7.60;42.80;;;;;;10427220;28;20224;-76
2022/01/17 20:32:12;;;;;;;5.60;5.10;;;7.60;42.90;;;;;;10425673;28;20217;-77
2022/01/17 20:37:15;;;;;;;5.97;5.47;;;7.60;42.90;;;;;;10410171;28;20229;-76
2022/01/17 20:42:19;;;;;;;6.00;5.40;;;7.60;43.10;;;;;;10416773;28;20267;-78
2022/01/17 20:47:23;;;;;;;6.17;5.67;;;7.50;43.10;;;;;;10414076;28;20766;-78
2022/01/17 20:52:26;;;;;;;5.47;4.97;;;7.50;43.20;;;;;;10413982;28;20224;-78
2022/01/17 20:57:30;;;;;;;6.40;5.83;;;7.50;43.20;;;;;;10423138;28;20251;-78
2022/01/17 21:02:34;;;;;;;6.23;5.73;;;7.60;43.20;;;;;;10421911;28;20233;-79
2022/01/17 21:07:38;;;;;;;6.07;5.50;;;7.60;43.40;;;;;;10413883;28;20230;-78
2022/01/17 21:12:41;;;;;;;6.53;5.93;;;7.50;43.30;;;;;;10410541;28;20233;-80
2022/01/17 21:17:46;;;;;;;6.30;5.80;;;7.60;43.40;;;;;;10411399;28;20232;-79
2022/01/17 21:22:52;;;;;;;6.63;6.03;;;7.60;43.40;;;;;;10419917;28;20247;-80
2022/01/17 21:27:55;;;;;;;6.30;5.70;;;7.60;43.40;;;;;;10414069;28;20876;-79
2022/01/17 21:33:00;;;;;;;6.33;5.73;;;7.60;43.40;;;;;;10412019;28;20783;-79
2022/01/17 21:38:03;;;;;;;6.17;5.67;;;7.60;43.50;;;;;;10412601;28;20218;-80
2022/01/17 21:43:08;;;;;;;6.67;6.07;;;7.60;44.20;;;;;;10406428;28;20796;-78
2022/01/17 21:48:13;;;;;;;6.37;5.87;;;7.60;43.40;;;;;;10412385;28;20217;-80
2022/01/17 21:53:16;;;;;;;5.80;5.30;;;7.60;43.40;;;;;;10408249;28;20233;-78
2022/01/17 21:58:19;;;;;;;5.80;5.30;;;7.60;43.40;;;;;;10410543;28;20236;-77
2022/01/17 22:03:24;;;;;;;6.47;5.90;;;7.60;43.40;;;;;;10417297;28;20455;-79
2022/01/17 22:08:27;;;;;;;6.20;5.70;;;7.60;43.60;;;;;;10419595;28;20236;-77
2022/01/17 22:13:31;;;;;;;6.50;5.90;;;7.60;43.60;;;;;;10417710;28;20228;-77
2022/01/17 22:18:40;;;;;;;6.97;6.37;;;7.60;43.50;;;;;;10424886;28;20265;-78
2022/01/17 22:23:46;;;;;;;6.57;6.07;;;7.60;43.60;;;;;;10430540;28;20225;-78
2022/01/17 22:28:49;;;;;;;6.90;6.27;;;7.60;43.50;;;;;;10426536;28;20232;-78
2022/01/17 22:33:54;;;;;;;6.73;6.13;;;7.60;43.50;;;;;;10419582;28;20230;-78
2022/01/17 22:39:04;;;;;;;6.80;6.20;;;7.60;43.70;;;;;;10427669;28;20222;-78
2022/01/17 22:44:07;;;;;;;7.37;6.47;;;7.50;43.70;;;;;;10422961;28;20251;-78
2022/01/17 22:49:14;;;;;;;7.27;6.67;;;7.50;43.60;;;;;;10423160;28;20633;-78
2022/01/17 22:54:17;;;;;;;6.40;5.90;;;7.50;44.10;;;;;;10429408;28;20309;-78
2022/01/17 22:59:20;;;;;;;7.87;7.17;;;7.50;44.10;;;;;;10449723;22;20232;-67
2022/01/17 23:04:25;;;;;;;7.17;6.57;;;7.40;44.10;;;;;;10471981;28;20228;-68
2022/01/17 23:09:28;;;;;;;6.87;6.27;;;7.40;44.30;;;;;;10463324;28;20224;-67
2022/01/17 23:14:31;;;;;;;7.37;6.77;;;7.40;44.10;;;;;;10453195;28;21060;-68
2022/01/17 23:19:47;;;;;;;7.37;6.77;;;7.40;44.20;;;;;;10460150;28;20229;-68
2022/01/17 23:24:50;;;;;;;8.27;7.53;;;7.50;44.40;;;;;;10462819;28;20228;-68
2022/01/17 23:30:00;;;;;;;7.90;7.20;;;7.50;44.10;;;;;;10471977;28;20781;-68
2022/01/17 23:35:05;;;;;;;8.27;7.47;;;7.50;44.00;;;;;;10472212;28;20623;-67
2022/01/17 23:40:09;;;;;;;7.80;7.10;;;7.60;44.20;;;;;;10466183;28;20712;-68
2022/01/17 23:45:12;;;;;;;8.43;7.73;;;7.60;44.00;;;;;;10462715;28;20313;-68
2022/01/17 23:50:17;;;;;;;7.90;7.20;;;7.50;44.10;;;;;;10471330;28;20236;-67
2022/01/17 23:55:21;;;;;;;7.90;7.20;;;7.60;44.30;;;;;;10470888;28;20225;-68
